Time;durP1;ratioP1;P1;durP2;ratioP2;P2;SDS_P1;SDS_P2;PMS_P1;PMS_P2;Temp;Humidity;BMP_temperature;BMP_pressure;BME280_temperature;BME280_humidity;BME280_pressure;Samples;Min_cycle;Max_cycle;Signal;HPM_P1;HPM_P2
2022/01/08 00:01:43;;;;;;;;;;;0.90;99.90;;;;;;5008219;28;19929;-77
2022/01/08 00:04:09;;;;;;;;;;;0.80;99.90;;;;;;5009005;28;19947;-77
2022/01/08 00:06:34;;;;;;;;;;;0.80;99.90;;;;;;5007349;28;20615;-76
2022/01/08 00:09:00;;;;;;;;;;;0.80;99.90;;;;;;5005330;28;19922;-76
2022/01/08 00:11:27;;;;;;;;;;;0.80;99.90;;;;;;5005710;28;19917;-76
2022/01/08 00:13:53;;;;;;;;;;;0.80;99.90;;;;;;5007088;28;19917;-77
2022/01/08 00:16:19;;;;;;;;;;;0.80;99.90;;;;;;5007750;28;19917;-76
2022/01/08 00:18:44;;;;;;;;;;;0.70;99.90;;;;;;5002332;28;19922;-76
2022/01/08 00:21:10;;;;;;;;;;;0.80;99.90;;;;;;5005184;28;21102;-76
2022/01/08 00:23:36;;;;;;;;;;;0.80;99.90;;;;;;5007422;28;20228;-76
2022/01/08 00:26:04;;;;;;;;;;;0.80;99.90;;;;;;5003815;28;20550;-76
2022/01/08 00:28:29;;;;;;;;;;;0.80;99.90;;;;;;5004253;28;19925;-76
2022/01/08 00:30:55;;;;;;;;;;;0.80;99.90;;;;;;5004637;28;19941;-76
2022/01/08 00:33:21;;;;;;;;;;;0.80;99.90;;;;;;5008479;28;19918;-77
2022/01/08 00:35:46;;;;;;;;;;;0.80;99.90;;;;;;5006150;28;19921;-76
2022/01/08 00:38:13;;;;;;;;;;;0.90;99.90;;;;;;5006705;28;19953;-76
2022/01/08 00:40:38;;;;;;;;;;;1.00;99.90;;;;;;5002216;28;19924;-77
2022/01/08 00:43:04;;;;;;;;;;;1.00;99.90;;;;;;5006406;28;19917;-76
2022/01/08 00:45:30;;;;;;;;;;;1.00;99.90;;;;;;5022434;28;19929;-75
2022/01/08 00:47:55;;;;;;;;;;;1.00;99.90;;;;;;5030336;28;20338;-76
2022/01/08 00:50:21;;;;;;;;;;;0.90;99.90;;;;;;5012523;28;19923;-75
2022/01/08 00:52:47;;;;;;;;;;;0.90;99.90;;;;;;5030499;28;19932;-75
2022/01/08 00:55:13;;;;;;;;;;;0.90;99.90;;;;;;5029733;28;19920;-75
2022/01/08 00:57:39;;;;;;;;;;;1.00;99.90;;;;;;5010977;28;20360;-76
2022/01/08 01:00:06;;;;;;;;;;;1.00;99.90;;;;;;5012536;28;20036;-76
2022/01/08 01:02:31;;;;;;;;;;;1.10;99.90;;;;;;5028557;28;20690;-76
2022/01/08 01:04:57;;;;;;;;;;;1.10;99.90;;;;;;5012258;28;19921;-75
2022/01/08 01:07:22;;;;;;;;;;;1.10;99.90;;;;;;5011911;28;20316;-76
2022/01/08 01:09:48;;;;;;;;;;;1.00;99.90;;;;;;5030073;28;19940;-77
2022/01/08 01:12:13;;;;;;;;;;;1.00;99.90;;;;;;5029839;28;19921;-76
2022/01/08 01:14:39;;;;;;;;;;;1.00;99.90;;;;;;5030241;28;20012;-76
2022/01/08 01:17:05;;;;;;;;;;;1.00;99.90;;;;;;5029907;28;20468;-76
2022/01/08 01:19:30;;;;;;;;;;;1.10;99.90;;;;;;5029346;28;19924;-75
2022/01/08 01:21:58;;;;;;;;;;;1.10;99.90;;;;;;5011882;28;20008;-76
2022/01/08 01:24:25;;;;;;;;;;;1.10;99.90;;;;;;5011494;28;19917;-76
2022/01/08 01:48:24;;;;;;;;;;;0.80;99.90;;;;;;5028713;28;19924;-76
2022/01/08 01:50:50;;;;;;;;;;;0.80;99.90;;;;;;5017480;28;19921;-76
2022/01/08 01:53:15;;;;;;;;;;;0.80;99.90;;;;;;5017752;28;19964;-76
2022/01/08 01:55:41;;;;;;;;;;;0.80;99.90;;;;;;5034763;28;19913;-76
2022/01/08 01:58:07;;;;;;;;;;;0.80;99.90;;;;;;5034540;28;20125;-76
2022/01/08 02:00:33;;;;;;;;;;;0.70;99.90;;;;;;5035271;28;19920;-76
2022/01/08 02:02:59;;;;;;;;;;;0.70;99.90;;;;;;5034873;28;20224;-76
2022/01/08 02:05:25;;;;;;;;;;;0.80;99.90;;;;;;5023351;28;19920;-75
2022/01/08 02:07:53;;;;;;;;;;;0.70;99.90;;;;;;5034533;28;19972;-75
2022/01/08 02:10:19;;;;;;;;;;;1.00;99.90;;;;;;5016671;28;20228;-75
2022/01/08 02:12:44;;;;;;;;;;;0.90;99.90;;;;;;5034147;28;19918;-76
2022/01/08 02:15:10;;;;;;;;;;;1.00;99.90;;;;;;5000822;28;19921;-75
2022/01/08 02:17:36;;;;;;;;;;;1.00;99.90;;;;;;5005830;28;19971;-75
2022/01/08 02:20:01;;;;;;;;;;;1.10;99.90;;;;;;5034756;28;19913;-76
2022/01/08 02:22:27;;;;;;;;;;;1.10;99.90;;;;;;5034068;28;19913;-76
2022/01/08 02:24:52;;;;;;;;;;;1.20;99.90;;;;;;5017316;28;19917;-76
2022/01/08 02:27:18;;;;;;;;;;;1.10;99.90;;;;;;5034391;28;19917;-76
2022/01/08 02:29:44;;;;;;;;;;;1.00;99.90;;;;;;5016109;28;19917;-76
2022/01/08 02:32:11;;;;;;;;;;;1.00;99.90;;;;;;5026344;28;20234;-76
2022/01/08 02:34:38;;;;;;;;;;;1.00;99.90;;;;;;5029254;28;19913;-76
2022/01/08 02:37:05;;;;;;;;;;;0.90;99.90;;;;;;5033634;28;19919;-79
2022/01/08 02:39:34;;;;;;;;;;;0.90;99.90;;;;;;5024372;28;19928;-76
2022/01/08 02:41:59;;;;;;;;;;;0.90;99.90;;;;;;5032718;28;19963;-76
2022/01/08 02:44:26;;;;;;;;;;;0.90;99.90;;;;;;5016925;28;19979;-76
2022/01/08 02:46:52;;;;;;;;;;;1.20;99.90;;;;;;5017045;28;19925;-76
2022/01/08 02:49:17;;;;;;;;;;;1.40;99.90;;;;;;5034635;28;19917;-75
2022/01/08 02:51:43;;;;;;;;;;;1.50;99.90;;;;;;5034722;28;19920;-76
2022/01/08 02:54:10;;;;;;;;;;;1.60;99.90;;;;;;5017309;28;19920;-77
2022/01/08 02:56:43;;;;;;;;;;;1.70;99.90;;;;;;5038585;28;19925;-76
2022/01/08 02:59:09;;;;;;;;;;;1.80;99.90;;;;;;5037832;28;19924;-76
2022/01/08 03:01:35;;;;;;;;;;;1.80;99.90;;;;;;5038635;28;19913;-78
2022/01/08 03:04:00;;;;;;;;;;;1.90;99.90;;;;;;5038015;28;19921;-76
2022/01/08 03:06:26;;;;;;;;;;;1.90;99.90;;;;;;5020904;28;20019;-76
2022/01/08 03:08:52;;;;;;;;;;;1.90;99.90;;;;;;5027013;28;19913;-76
2022/01/08 03:11:17;;;;;;;;;;;2.00;99.90;;;;;;5021038;28;20043;-77
2022/01/08 03:13:43;;;;;;;;;;;2.00;99.90;;;;;;5036884;28;19921;-77
2022/01/08 03:16:08;;;;;;;;;;;1.90;99.90;;;;;;5020128;28;19920;-77
2022/01/08 03:18:36;;;;;;;;;;;1.90;99.90;;;;;;5020759;28;20240;-78
2022/01/08 03:21:12;;;;;;;;;;;1.80;99.90;;;;;;5020904;28;19913;-77
2022/01/08 03:23:44;;;;;;;;;;;1.80;99.90;;;;;;5038011;28;19916;-77
2022/01/08 03:26:10;;;;;;;;;;;1.70;99.90;;;;;;5020714;28;19913;-77
2022/01/08 03:28:35;;;;;;;;;;;1.60;99.90;;;;;;5037769;28;19971;-77
2022/01/08 03:31:01;;;;;;;;;;;1.70;99.90;;;;;;5037660;28;19917;-76
2022/01/08 03:33:26;;;;;;;;;;;1.70;99.90;;;;;;5037300;28;19920;-78
2022/01/08 03:35:52;;;;;;;;;;;1.90;99.90;;;;;;5038302;28;19923;-77
2022/01/08 03:38:18;;;;;;;;;;;2.00;99.90;;;;;;5020310;28;19967;-77
2022/01/08 03:40:43;;;;;;;;;;;2.00;99.90;;;;;;5037909;28;19931;-76
2022/01/08 03:43:09;;;;;;;;;;;2.00;99.90;;;;;;5019745;28;19916;-77
2022/01/08 03:45:34;;;;;;;;;;;2.00;99.90;;;;;;5035149;28;19928;-77
2022/01/08 03:50:31;;;;;;;;;;;2.10;99.90;;;;;;5037932;28;20304;-78
2022/01/08 03:52:57;;;;;;;;;;;2.00;99.90;;;;;;5037421;28;19932;-77
2022/01/08 03:55:23;;;;;;;;;;;2.00;99.90;;;;;;5037361;28;19913;-77
2022/01/08 03:57:48;;;;;;;;;;;2.00;99.90;;;;;;5037573;28;20359;-77
2022/01/08 04:00:14;;;;;;;;;;;1.80;99.90;;;;;;5037337;28;19920;-77
2022/01/08 04:02:40;;;;;;;;;;;1.70;99.90;;;;;;5037110;28;19921;-77
2022/01/08 04:05:05;;;;;;;;;;;1.60;99.90;;;;;;5036412;28;19917;-77
2022/01/08 04:07:31;;;;;;;;;;;1.50;99.90;;;;;;5037443;28;19920;-77
2022/01/08 04:09:57;;;;;;;;;;;1.50;99.90;;;;;;5019332;28;19921;-77
2022/01/08 04:12:33;;;;;;;;;;;1.50;99.90;;;;;;5019731;28;20007;-77
2022/01/08 04:15:06;;;;;;;;;;;1.60;99.90;;;;;;5037176;28;20047;-77
2022/01/08 04:17:32;;;;;;;;;;;1.70;99.90;;;;;;5019673;28;20031;-77
2022/01/08 04:19:57;;;;;;;;;;;1.80;99.90;;;;;;5019619;28;19995;-76
2022/01/08 04:22:24;;;;;;;;;;;1.90;99.90;;;;;;5018817;28;20326;-79
2022/01/08 04:24:50;;;;;;;;;;;1.80;99.90;;;;;;5034783;28;19913;-76
2022/01/08 04:27:16;;;;;;;;;;;1.60;99.90;;;;;;5036339;28;20331;-76
2022/01/08 04:29:41;;;;;;;;;;;1.60;99.90;;;;;;5019106;28;19913;-77
2022/01/08 04:32:07;;;;;;;;;;;1.50;99.90;;;;;;5037076;28;19917;-77
2022/01/08 04:34:33;;;;;;;;;;;1.40;99.90;;;;;;5018359;28;20352;-77
2022/01/08 04:36:58;;;;;;;;;;;1.40;99.90;;;;;;5037041;28;19920;-77
2022/01/08 04:39:24;;;;;;;;;;;1.40;99.90;;;;;;5019139;28;20008;-77
2022/01/08 04:41:49;;;;;;;;;;;1.30;99.90;;;;;;5028172;28;20617;-77
2022/01/08 04:44:15;;;;;;;;;;;1.30;99.90;;;;;;5036415;28;19971;-77
2022/01/08 04:46:41;;;;;;;;;;;1.30;99.90;;;;;;5036108;28;20287;-77
2022/01/08 04:49:07;;;;;;;;;;;1.20;99.90;;;;;;5019060;28;19916;-78
2022/01/08 04:51:33;;;;;;;;;;;1.20;99.90;;;;;;5019112;28;20279;-77
2022/01/08 04:53:58;;;;;;;;;;;1.10;99.90;;;;;;5018434;28;19921;-77
2022/01/08 04:56:24;;;;;;;;;;;1.10;99.90;;;;;;5018442;28;20212;-77
2022/01/08 04:58:49;;;;;;;;;;;1.10;99.90;;;;;;5036069;28;19914;-77
2022/01/08 05:01:16;;;;;;;;;;;1.00;99.90;;;;;;5018824;28;19917;-77
2022/01/08 05:03:42;;;;;;;;;;;1.00;99.90;;;;;;5018611;28;19913;-77
2022/01/08 05:06:08;;;;;;;;;;;0.90;99.90;;;;;;5035904;28;20004;-77
2022/01/08 05:08:33;;;;;;;;;;;0.90;99.90;;;;;;5018755;28;19928;-76
2022/01/08 05:10:59;;;;;;;;;;;0.80;99.90;;;;;;5033260;28;19917;-77
2022/01/08 05:13:24;;;;;;;;;;;0.80;99.90;;;;;;5018410;28;20304;-77
2022/01/08 05:15:50;;;;;;;;;;;0.80;99.90;;;;;;5037482;28;19921;-77
2022/01/08 05:18:15;;;;;;;;;;;0.80;99.90;;;;;;5036019;28;20228;-76
2022/01/08 05:20:41;;;;;;;;;;;0.80;99.90;;;;;;5018395;28;20051;-77
2022/01/08 05:23:07;;;;;;;;;;;0.70;99.90;;;;;;5035789;28;19920;-76
2022/01/08 05:25:33;;;;;;;;;;;0.70;99.90;;;;;;5018048;28;19991;-77
2022/01/08 05:27:59;;;;;;;;;;;0.60;99.90;;;;;;5018266;28;19921;-77
2022/01/08 05:30:26;;;;;;;;;;;0.50;99.90;;;;;;5017963;28;19913;-77
2022/01/08 05:32:51;;;;;;;;;;;0.50;99.90;;;;;;5034748;28;19913;-76
2022/01/08 05:35:17;;;;;;;;;;;0.50;99.90;;;;;;5038589;28;20004;-76
2022/01/08 05:37:43;;;;;;;;;;;0.50;99.90;;;;;;5035650;28;20208;-76
2022/01/08 05:40:09;;;;;;;;;;;0.50;99.90;;;;;;5018110;28;19913;-76
2022/01/08 05:42:35;;;;;;;;;;;0.50;99.90;;;;;;5019646;28;19967;-77
2022/01/08 05:45:01;;;;;;;;;;;0.40;99.90;;;;;;5035176;28;19929;-76
2022/01/08 05:47:31;;;;;;;;;;;0.40;99.90;;;;;;5035665;28;19917;-76
2022/01/08 05:49:57;;;;;;;;;;;0.50;99.90;;;;;;5035024;28;20000;-77
2022/01/08 05:52:23;;;;;;;;;;;0.50;99.90;;;;;;5034450;28;20363;-76
2022/01/08 05:54:48;;;;;;;;;;;0.40;99.90;;;;;;5026238;28;19913;-76
2022/01/08 05:57:14;;;;;;;;;;;0.50;99.90;;;;;;5016547;28;19924;-76
2022/01/08 05:59:40;;;;;;;;;;;0.50;99.90;;;;;;5030395;28;19944;-77
2022/01/08 06:02:08;;;;;;;;;;;0.50;99.90;;;;;;5027611;28;19956;-76
2022/01/08 06:04:34;;;;;;;;;;;0.50;99.90;;;;;;5015740;28;20255;-76
2022/01/08 06:06:59;;;;;;;;;;;0.50;99.90;;;;;;5031846;28;19921;-77
2022/01/08 06:09:25;;;;;;;;;;;0.50;99.90;;;;;;5016916;28;19948;-77
2022/01/08 06:11:50;;;;;;;;;;;0.50;99.90;;;;;;5027813;28;19921;-76
2022/01/08 06:14:16;;;;;;;;;;;0.60;99.90;;;;;;5034182;28;19971;-78
2022/01/08 06:16:41;;;;;;;;;;;0.60;99.90;;;;;;5034234;28;20328;-76
2022/01/08 06:19:08;;;;;;;;;;;0.60;99.90;;;;;;5033967;28;19923;-76
2022/01/08 06:21:34;;;;;;;;;;;0.70;99.90;;;;;;5016638;28;19913;-76
2022/01/08 06:23:59;;;;;;;;;;;0.70;99.90;;;;;;5035177;28;19913;-77
2022/01/08 06:26:25;;;;;;;;;;;0.80;99.90;;;;;;5034860;28;19917;-76
2022/01/08 06:28:51;;;;;;;;;;;0.80;99.90;;;;;;5016972;28;19950;-76
2022/01/08 06:31:18;;;;;;;;;;;0.80;99.90;;;;;;5034892;28;19913;-76
2022/01/08 06:33:44;;;;;;;;;;;0.90;99.90;;;;;;5033749;28;20350;-76
2022/01/08 06:36:09;;;;;;;;;;;0.90;99.90;;;;;;5032939;28;19913;-77
2022/01/08 06:38:35;;;;;;;;;;;0.90;99.90;;;;;;5034383;28;20319;-77
2022/01/08 06:41:00;;;;;;;;;;;0.90;99.90;;;;;;5017813;28;19921;-77
2022/01/08 06:43:26;;;;;;;;;;;0.90;99.90;;;;;;5034376;28;20004;-77
2022/01/08 06:45:51;;;;;;;;;;;0.90;99.90;;;;;;5034423;28;19957;-77
2022/01/08 06:48:17;;;;;;;;;;;0.90;99.90;;;;;;5034737;28;19924;-77
2022/01/08 06:50:42;;;;;;;;;;;0.90;99.90;;;;;;5034700;28;20343;-76
2022/01/08 06:53:08;;;;;;;;;;;0.90;99.90;;;;;;5034529;28;20268;-77
2022/01/08 06:55:34;;;;;;;;;;;0.90;99.90;;;;;;5034632;28;19952;-76
2022/01/08 06:58:00;;;;;;;;;;;0.90;99.90;;;;;;5016939;28;19921;-76
2022/01/08 07:00:26;;;;;;;;;;;0.90;99.90;;;;;;5017071;28;20225;-76
2022/01/08 07:02:51;;;;;;;;;;;0.90;99.90;;;;;;5033956;28;19913;-76
2022/01/08 07:05:17;;;;;;;;;;;0.90;99.90;;;;;;5017151;28;20063;-76
2022/01/08 07:07:42;;;;;;;;;;;0.90;99.90;;;;;;5029457;28;19917;-76
2022/01/08 07:10:08;;;;;;;;;;;1.00;99.90;;;;;;5016761;28;20003;-77
2022/01/08 07:12:34;;;;;;;;;;;1.00;99.90;;;;;;5034637;28;19913;-77
2022/01/08 07:14:59;;;;;;;;;;;1.00;99.90;;;;;;5033946;28;19913;-76
2022/01/08 07:17:25;;;;;;;;;;;1.00;99.90;;;;;;5034245;28;20244;-76
2022/01/08 07:19:50;;;;;;;;;;;1.00;99.90;;;;;;5034263;28;19921;-77
2022/01/08 07:22:16;;;;;;;;;;;1.10;99.90;;;;;;5034197;28;19925;-76
2022/01/08 07:24:42;;;;;;;;;;;1.10;99.90;;;;;;5034522;28;19920;-76
2022/01/08 07:27:07;;;;;;;;;;;1.20;99.90;;;;;;5016746;28;19921;-76
2022/01/08 07:29:33;;;;;;;;;;;1.20;99.90;;;;;;5033925;28;19944;-76
2022/01/08 07:31:58;;;;;;;;;;;1.20;99.90;;;;;;5032918;28;19913;-76
2022/01/08 07:34:24;;;;;;;;;;;1.20;99.90;;;;;;5023322;28;20328;-76
2022/01/08 07:36:49;;;;;;;;;;;1.20;99.90;;;;;;5019105;28;19920;-76
2022/01/08 07:39:15;;;;;;;;;;;1.20;99.90;;;;;;5034368;28;19971;-76
2022/01/08 07:41:41;;;;;;;;;;;1.20;99.90;;;;;;5036147;28;19940;-76
2022/01/08 07:44:06;;;;;;;;;;;1.20;99.90;;;;;;5036753;28;19913;-76
2022/01/08 07:46:33;;;;;;;;;;;1.30;99.90;;;;;;5013279;28;19928;-75
2022/01/08 07:48:58;;;;;;;;;;;1.30;99.90;;;;;;5011305;28;20320;-76
2022/01/08 07:51:24;;;;;;;;;;;1.30;99.90;;;;;;4992742;28;19918;-76
2022/01/08 07:53:49;;;;;;;;;;;1.30;99.90;;;;;;5011301;28;20587;-76
2022/01/08 07:56:15;;;;;;;;;;;1.30;99.90;;;;;;5010755;28;20049;-77
2022/01/08 07:58:40;;;;;;;;;;;1.30;99.90;;;;;;5006510;28;19960;-75
2022/01/08 08:01:06;;;;;;;;;;;1.40;99.90;;;;;;5004147;28;19964;-76
2022/01/08 08:03:32;;;;;;;;;;;1.30;99.90;;;;;;5007452;28;19918;-76
2022/01/08 08:05:57;;;;;;;;;;;1.40;99.90;;;;;;5006503;28;19953;-76
2022/01/08 08:08:23;;;;;;;;;;;1.40;99.90;;;;;;5007460;28;19975;-76
2022/01/08 08:10:50;;;;;;;;;;;1.40;99.90;;;;;;5022654;28;20008;-76
2022/01/08 08:13:19;;;;;;;;;;;1.40;99.90;;;;;;5009315;28;19925;-76
2022/01/08 08:15:45;;;;;;;;;;;1.40;99.90;;;;;;5006184;28;20016;-77
2022/01/08 08:18:11;;;;;;;;;;;1.40;99.90;;;;;;5004773;28;20427;-76
2022/01/08 08:20:37;;;;;;;;;;;1.40;99.90;;;;;;5004854;28;19949;-77
2022/01/08 08:23:03;;;;;;;;;;;1.50;99.90;;;;;;5003539;28;20003;-76
2022/01/08 08:25:28;;;;;;;;;;;1.50;99.90;;;;;;4988098;28;19926;-77
2022/01/08 08:27:54;;;;;;;;;;;1.50;99.90;;;;;;5004165;28;19967;-77
2022/01/08 08:30:21;;;;;;;;;;;1.50;99.90;;;;;;5002620;28;19920;-77
2022/01/08 08:32:47;;;;;;;;;;;1.60;99.90;;;;;;5004326;28;19918;-76
2022/01/08 08:35:12;;;;;;;;;;;1.50;99.90;;;;;;5001205;28;20237;-77
2022/01/08 08:37:38;;;;;;;;;;;1.60;99.90;;;;;;5001980;28;19914;-77
2022/01/08 08:40:04;;;;;;;;;;;1.60;99.90;;;;;;5003930;28;19917;-76
2022/01/08 08:42:29;;;;;;;;;;;1.60;99.90;;;;;;5005767;28;19913;-77
2022/01/08 08:44:55;;;;;;;;;;;1.70;99.90;;;;;;5011864;28;21437;-77
2022/01/08 08:47:21;;;;;;;;;;;1.70;99.90;;;;;;5035916;28;19925;-78
2022/01/08 08:49:46;;;;;;;;;;;1.70;99.90;;;;;;5035326;28;19913;-76
2022/01/08 08:52:12;;;;;;;;;;;1.70;99.90;;;;;;5035678;28;19975;-76
2022/01/08 08:54:41;;;;;;;;;;;1.80;99.90;;;;;;5038107;28;19920;-77
2022/01/08 08:57:07;;;;;;;;;;;1.70;99.90;;;;;;5028038;28;19920;-76
2022/01/08 08:59:33;;;;;;;;;;;1.80;99.90;;;;;;5036608;28;19913;-76
2022/01/08 09:01:58;;;;;;;;;;;1.80;99.90;;;;;;5043595;28;19974;-76
2022/01/08 09:04:24;;;;;;;;;;;1.80;99.90;;;;;;5018816;28;19917;-76
2022/01/08 09:06:50;;;;;;;;;;;1.90;99.90;;;;;;5029017;28;20218;-77
2022/01/08 09:09:16;;;;;;;;;;;1.90;99.90;;;;;;5018343;28;19913;-77
2022/01/08 09:11:42;;;;;;;;;;;1.90;99.90;;;;;;5017740;28;19975;-77
2022/01/08 09:14:07;;;;;;;;;;;2.00;99.90;;;;;;5031047;28;19931;-76
2022/01/08 09:16:36;;;;;;;;;;;2.00;99.90;;;;;;5034832;28;19913;-77
2022/01/08 09:19:03;;;;;;;;;;;2.00;99.90;;;;;;5034295;28;19920;-76
2022/01/08 09:21:28;;;;;;;;;;;2.00;99.90;;;;;;5015780;28;19913;-77
2022/01/08 09:23:54;;;;;;;;;;;2.00;99.90;;;;;;5011081;28;19990;-76
2022/01/08 09:26:19;;;;;;;;;;;2.10;99.90;;;;;;5035222;28;19917;-76
2022/01/08 09:28:46;;;;;;;;;;;2.10;99.90;;;;;;5035679;28;19971;-77
2022/01/08 09:31:12;;;;;;;;;;;2.10;99.90;;;;;;5018037;28;19975;-76
2022/01/08 09:33:38;;;;;;;;;;;2.10;99.90;;;;;;5018022;28;20347;-75
2022/01/08 09:36:04;;;;;;;;;;;2.20;99.90;;;;;;4998316;28;20237;-78
2022/01/08 09:38:31;;;;;;;;;;;2.20;99.90;;;;;;5030839;28;19918;-84
2022/01/08 09:40:57;;;;;;;;;;;2.20;99.90;;;;;;5026115;28;19956;-78
2022/01/08 09:43:23;;;;;;;;;;;2.30;99.90;;;;;;5025178;28;19925;-86
2022/01/08 09:45:48;;;;;;;;;;;2.30;99.90;;;;;;5029547;28;19969;-78
2022/01/08 09:48:17;;;;;;;;;;;2.30;99.90;;;;;;5011227;28;19932;-83
2022/01/08 09:50:43;;;;;;;;;;;2.40;99.90;;;;;;5006201;28;19987;-77
2022/01/08 09:53:12;;;;;;;;;;;2.40;99.90;;;;;;5029271;28;20413;-77
2022/01/08 09:55:38;;;;;;;;;;;2.40;99.90;;;;;;4995567;28;19923;-81
2022/01/08 09:58:04;;;;;;;;;;;2.50;99.90;;;;;;5031541;28;19913;-82
2022/01/08 10:00:31;;;;;;;;;;;2.50;99.90;;;;;;5007779;28;20504;-83
2022/01/08 10:03:14;;;;;;;;;;;2.50;99.90;;;;;;5029142;28;20004;-87
2022/01/08 10:05:45;;;;;;;;;;;2.50;99.90;;;;;;5012379;28;19921;-77
2022/01/08 10:08:12;;;;;;;;;;;2.50;99.90;;;;;;5029381;28;19924;-76
2022/01/08 10:10:37;;;;;;;;;;;2.50;99.90;;;;;;5011174;28;20359;-76
2022/01/08 10:13:04;;;;;;;;;;;2.60;99.90;;;;;;5028066;28;19917;-76
2022/01/08 10:18:26;;;;;;;;;;;2.70;99.90;;;;;;5029102;28;20363;-77
2022/01/08 10:20:57;;;;;;;;;;;2.70;99.90;;;;;;5028747;28;19921;-76
2022/01/08 10:23:27;;;;;;;;;;;2.70;99.90;;;;;;5009936;28;20003;-77
2022/01/08 10:25:56;;;;;;;;;;;2.80;99.90;;;;;;5009964;28;19921;-79
2022/01/08 10:28:41;;;;;;;;;;;2.80;99.90;;;;;;5025869;28;19924;-78
2022/01/08 10:31:36;;;;;;;;;;;2.90;99.90;;;;;;5010639;28;19928;-76
2022/01/08 10:34:28;;;;;;;;;;;2.90;99.90;;;;;;5028107;28;19917;-78
2022/01/08 10:37:05;;;;;;;;;;;2.90;99.90;;;;;;5024908;28;19917;-78
2022/01/08 10:39:35;;;;;;;;;;;2.90;99.90;;;;;;5028408;28;19967;-76
2022/01/08 10:42:08;;;;;;;;;;;3.00;99.90;;;;;;5010965;28;19927;-75
2022/01/08 10:44:36;;;;;;;;;;;3.00;99.90;;;;;;5024915;28;19932;-78
2022/01/08 10:47:02;;;;;;;;;;;3.00;99.90;;;;;;5027241;28;20213;-77
2022/01/08 10:49:37;;;;;;;;;;;3.00;99.90;;;;;;5029127;28;19951;-76
2022/01/08 10:52:06;;;;;;;;;;;3.00;99.90;;;;;;5027682;28;19963;-77
2022/01/08 10:54:34;;;;;;;;;;;3.00;99.90;;;;;;5027723;28;19921;-77
2022/01/08 10:57:02;;;;;;;;;;;3.10;99.90;;;;;;5028339;28;19917;-76
2022/01/08 10:59:29;;;;;;;;;;;3.00;99.90;;;;;;5028219;28;19917;-77
2022/01/08 11:01:59;;;;;;;;;;;3.10;99.90;;;;;;5008612;28;20324;-76
2022/01/08 11:04:32;;;;;;;;;;;3.10;99.90;;;;;;5026768;28;19917;-77
2022/01/08 11:06:59;;;;;;;;;;;3.10;99.90;;;;;;5020653;28;19917;-75
2022/01/08 11:09:25;;;;;;;;;;;3.20;99.90;;;;;;5009129;28;19990;-77
2022/01/08 11:11:52;;;;;;;;;;;3.20;99.90;;;;;;5010519;28;19928;-76
2022/01/08 11:17:10;;;;;;;;;;;3.30;99.90;;;;;;5000024;28;19917;-77
2022/01/08 11:19:37;;;;;;;;;;;3.30;99.90;;;;;;5033063;28;19928;-77
2022/01/08 11:22:03;;;;;;;;;;;3.30;99.90;;;;;;5032707;28;19917;-76
2022/01/08 11:24:32;;;;;;;;;;;3.30;99.90;;;;;;5031105;28;19975;-76
2022/01/08 11:26:58;;;;;;;;;;;3.40;99.90;;;;;;5023030;28;19921;-77
2022/01/08 11:29:24;;;;;;;;;;;3.40;99.90;;;;;;5032675;28;19917;-76
2022/01/08 11:31:55;;;;;;;;;;;3.40;99.90;;;;;;5030939;28;19917;-76
2022/01/08 11:34:23;;;;;;;;;;;3.50;99.90;;;;;;5032634;28;19925;-76
2022/01/08 11:36:50;;;;;;;;;;;3.50;99.90;;;;;;5013956;28;19971;-76
2022/01/08 11:39:18;;;;;;;;;;;3.50;99.90;;;;;;4992302;28;19917;-76
2022/01/08 11:41:45;;;;;;;;;;;3.50;99.90;;;;;;5012801;28;19983;-77
2022/01/08 11:44:11;;;;;;;;;;;3.50;99.90;;;;;;5013638;28;19936;-76
2022/01/08 11:46:39;;;;;;;;;;;3.40;99.90;;;;;;5030665;28;20263;-77
2022/01/08 11:49:05;;;;;;;;;;;3.40;99.90;;;;;;5013746;28;19928;-76
2022/01/08 11:51:42;;;;;;;;;;;3.30;99.90;;;;;;5013895;28;20011;-76
2022/01/08 11:54:07;;;;;;;;;;;3.30;99.90;;;;;;5012638;28;20070;-76
2022/01/08 11:56:37;;;;;;;;;;;3.20;99.90;;;;;;5030101;28;20011;-77
2022/01/08 11:59:12;;;;;;;;;;;3.30;99.90;;;;;;5031959;28;19917;-76
2022/01/08 12:01:39;;;;;;;;;;;3.30;99.90;;;;;;5011354;28;19921;-77
2022/01/08 12:04:05;;;;;;;;;;;3.30;99.90;;;;;;5013649;28;19928;-76
2022/01/08 12:06:33;;;;;;;;;;;3.30;99.90;;;;;;5030120;28;19921;-77
2022/01/08 12:09:28;;;;;;;;;;;3.30;99.90;;;;;;5012948;28;19932;-76
2022/01/08 12:12:04;;;;;;;;;;;3.30;99.90;;;;;;5030947;28;19916;-77
2022/01/08 12:14:45;;;;;;;;;;;3.30;99.90;;;;;;5027280;28;19928;-75
2022/01/08 12:17:12;;;;;;;;;;;3.40;99.90;;;;;;5028374;28;20460;-76
2022/01/08 12:19:39;;;;;;;;;;;3.40;99.90;;;;;;5012241;28;20253;-76
2022/01/08 12:22:20;;;;;;;;;;;3.40;99.90;;;;;;5029237;28;20008;-77
2022/01/08 12:24:52;;;;;;;;;;;3.50;99.90;;;;;;5017286;28;19929;-76
2022/01/08 12:27:38;;;;;;;;;;;3.50;99.90;;;;;;5012226;28;19921;-77
2022/01/08 12:30:18;;;;;;;;;;;3.50;99.90;;;;;;5027548;28;20224;-76
2022/01/08 12:32:47;;;;;;;;;;;3.50;99.90;;;;;;5026114;28;21409;-77
2022/01/08 12:35:21;;;;;;;;;;;3.60;99.90;;;;;;5028955;28;19956;-77
2022/01/08 12:37:50;;;;;;;;;;;3.60;99.90;;;;;;5030207;28;19959;-76
2022/01/08 12:40:31;;;;;;;;;;;3.60;99.90;;;;;;5011824;28;19916;-77
2022/01/08 12:42:56;;;;;;;;;;;3.60;99.90;;;;;;5010879;28;20495;-75
2022/01/08 12:45:34;;;;;;;;;;;3.60;99.90;;;;;;5029207;28;19929;-75
2022/01/08 12:48:02;;;;;;;;;;;3.60;99.90;;;;;;5011826;28;20696;-77
2022/01/08 12:50:35;;;;;;;;;;;3.60;99.90;;;;;;5027959;28;19918;-75
2022/01/08 12:53:12;;;;;;;;;;;3.60;99.90;;;;;;5028153;28;19959;-76
2022/01/08 12:56:05;;;;;;;;;;;3.60;99.90;;;;;;5008756;28;19917;-76
2022/01/08 12:58:32;;;;;;;;;;;3.60;99.90;;;;;;5012205;28;19925;-77
2022/01/08 13:01:18;;;;;;;;;;;3.60;99.90;;;;;;5006957;28;20024;-77
2022/01/08 13:03:48;;;;;;;;;;;3.60;99.90;;;;;;5028715;28;19917;-75
2022/01/08 13:06:20;;;;;;;;;;;3.60;99.90;;;;;;5029016;28;19916;-77
2022/01/08 13:08:49;;;;;;;;;;;3.60;99.90;;;;;;5026758;28;20387;-77
2022/01/08 13:11:32;;;;;;;;;;;3.60;99.90;;;;;;5010935;28;20232;-77
2022/01/08 13:14:15;;;;;;;;;;;3.60;99.90;;;;;;5025133;28;20008;-76
2022/01/08 13:16:53;;;;;;;;;;;3.50;99.90;;;;;;5028363;28;20431;-76
2022/01/08 13:19:26;;;;;;;;;;;3.50;99.90;;;;;;5026268;28;19917;-77
2022/01/08 13:22:04;;;;;;;;;;;3.50;99.90;;;;;;5010024;28;20072;-77
2022/01/08 13:24:34;;;;;;;;;;;3.50;99.90;;;;;;5029163;28;20307;-77
2022/01/08 13:26:59;;;;;;;;;;;3.50;99.90;;;;;;5011248;28;20263;-76
2022/01/08 13:29:28;;;;;;;;;;;3.50;99.90;;;;;;5010598;28;19921;-78
2022/01/08 13:31:56;;;;;;;;;;;3.50;99.90;;;;;;5011127;28;19963;-76
2022/01/08 13:34:23;;;;;;;;;;;3.40;99.90;;;;;;5028789;28;19928;-77
2022/01/08 13:36:53;;;;;;;;;;;3.50;99.90;;;;;;4993406;28;20008;-76
2022/01/08 13:39:27;;;;;;;;;;;3.50;99.90;;;;;;5026978;28;20012;-76
2022/01/08 13:42:30;;;;;;;;;;;3.40;99.90;;;;;;5007011;28;20157;-77
2022/01/08 13:45:31;;;;;;;;;;;3.40;99.90;;;;;;5026105;28;19929;-77
2022/01/08 13:48:01;;;;;;;;;;;3.50;99.90;;;;;;5027149;28;20304;-77
2022/01/08 13:50:54;;;;;;;;;;;3.50;99.90;;;;;;4993545;28;19921;-76
2022/01/08 13:53:20;;;;;;;;;;;3.40;99.90;;;;;;5007355;28;20603;-76
2022/01/08 13:55:47;;;;;;;;;;;3.40;99.90;;;;;;5028193;28;20261;-76
2022/01/08 13:58:13;;;;;;;;;;;3.50;99.90;;;;;;5028019;28;19916;-76
2022/01/08 14:00:40;;;;;;;;;;;3.40;99.90;;;;;;5028647;28;19917;-76
2022/01/08 14:03:20;;;;;;;;;;;3.50;99.90;;;;;;5010151;28;20025;-76
2022/01/08 14:05:45;;;;;;;;;;;3.50;99.90;;;;;;5028870;28;19917;-76
2022/01/08 14:08:11;;;;;;;;;;;3.50;99.90;;;;;;5028548;28;19921;-76
2022/01/08 14:10:41;;;;;;;;;;;3.50;99.90;;;;;;5028767;28;19929;-75
2022/01/08 14:13:08;;;;;;;;;;;3.50;99.90;;;;;;5028667;28;19913;-76
2022/01/08 14:15:34;;;;;;;;;;;3.40;99.90;;;;;;5027953;28;19960;-77
2022/01/08 14:18:07;;;;;;;;;;;3.40;99.90;;;;;;5009996;28;20364;-76
2022/01/08 14:20:32;;;;;;;;;;;3.40;99.90;;;;;;5028164;28;19924;-76
2022/01/08 14:23:08;;;;;;;;;;;3.40;99.90;;;;;;5010665;28;20228;-75
2022/01/08 14:25:34;;;;;;;;;;;3.40;99.90;;;;;;5009007;28;19917;-77
2022/01/08 14:28:13;;;;;;;;;;;3.40;99.90;;;;;;5008660;28;19928;-76
2022/01/08 14:30:39;;;;;;;;;;;3.50;99.90;;;;;;5008322;28;19921;-76
2022/01/08 14:33:04;;;;;;;;;;;3.50;99.90;;;;;;5027233;28;19921;-77
2022/01/08 14:35:30;;;;;;;;;;;3.50;99.90;;;;;;5026192;28;19924;-76
2022/01/08 14:38:00;;;;;;;;;;;3.50;99.90;;;;;;5010277;28;20625;-75
2022/01/08 14:40:28;;;;;;;;;;;3.50;99.90;;;;;;5008331;28;19921;-76
2022/01/08 14:43:02;;;;;;;;;;;3.50;99.90;;;;;;5009975;28;19921;-76
2022/01/08 14:45:28;;;;;;;;;;;3.50;99.90;;;;;;5026053;28;20520;-78
2022/01/08 14:47:57;;;;;;;;;;;3.50;99.90;;;;;;5027914;28;19929;-76
2022/01/08 14:50:27;;;;;;;;;;;3.50;99.90;;;;;;5014546;28;19995;-77
2022/01/08 14:52:53;;;;;;;;;;;3.50;99.90;;;;;;5032266;28;20001;-75
2022/01/08 14:55:21;;;;;;;;;;;3.50;99.90;;;;;;5034153;28;20012;-76
2022/01/08 14:57:47;;;;;;;;;;;3.60;99.90;;;;;;5034186;28;19975;-77
2022/01/08 15:00:16;;;;;;;;;;;3.60;99.90;;;;;;5034312;28;19917;-76
2022/01/08 15:02:42;;;;;;;;;;;3.60;99.90;;;;;;5033061;28;20235;-75
2022/01/08 15:05:10;;;;;;;;;;;3.60;99.90;;;;;;5015529;28;20117;-76